Time;durP1;ratioP1;P1;durP2;ratioP2;P2;SDS_P1;SDS_P2;PMS_P1;PMS_P2;Temp;Humidity;BMP_temperature;BMP_pressure;BME280_temperature;BME280_humidity;BME280_pressure;Samples;Min_cycle;Max_cycle;Signal;HPM_P1;HPM_P2
2022/04/17 00:00:42;;;;;;;4.00;3.60;;;;;;;0.60;100.00;97766.50;4888990;29;20458;-75
2022/04/17 00:03:10;;;;;;;3.50;3.20;;;;;;;0.19;100.00;97715.34;4871937;29;20481;-75
2022/04/17 00:05:36;;;;;;;4.80;3.50;;;;;;;0.20;100.00;97717.72;4870037;29;20529;-75
2022/04/17 00:08:04;;;;;;;4.33;3.90;;;;;;;0.44;100.00;97756.75;4869207;29;20463;-74
2022/04/17 00:10:31;;;;;;;3.70;3.20;;;;;;;0.57;100.00;97749.53;4874271;29;20450;-74
2022/04/17 00:12:58;;;;;;;4.60;3.57;;;;;;;0.07;100.00;97725.72;4866152;29;20443;-74
2022/04/17 00:15:25;;;;;;;3.63;3.27;;;;;;;-0.07;100.00;97732.94;4861916;29;20435;-74
2022/04/17 00:17:52;;;;;;;3.77;3.47;;;;;;;0.09;100.00;97751.50;4861911;29;20438;-74
2022/04/17 00:20:19;;;;;;;5.53;3.47;;;;;;;-0.57;100.00;97705.69;4860526;29;20543;-74
2022/04/17 00:22:47;;;;;;;4.90;3.33;;;;;;;-0.33;100.00;97752.31;4860460;29;20913;-74
2022/04/17 00:25:14;;;;;;;4.03;3.73;;;;;;;-0.48;100.00;97756.31;4860992;29;20448;-74
2022/04/17 00:27:40;;;;;;;3.43;3.13;;;;;;;-0.44;100.00;97732.25;4861671;29;20543;-74
2022/04/17 00:30:08;;;;;;;4.17;3.87;;;;;;;-0.09;100.00;97749.78;4860398;29;20997;-74
2022/04/17 00:32:36;;;;;;;3.23;3.03;;;;;;;0.01;100.00;97755.25;4857554;29;20539;-74
2022/04/17 00:35:04;;;;;;;3.70;3.40;;;;;;;0.20;100.00;97748.94;4859559;29;20446;-74
2022/04/17 00:37:31;;;;;;;3.87;3.57;;;;;;;-0.09;100.00;97721.97;4860279;29;20490;-75
2022/04/17 00:39:58;;;;;;;3.57;3.23;;;;;;;0.11;100.00;97745.06;4861482;29;20929;-74
2022/04/17 00:42:25;;;;;;;3.23;2.87;;;;;;;-0.01;100.00;97737.25;4860252;29;20508;-74
2022/04/17 00:44:51;;;;;;;3.57;2.97;;;;;;;-0.70;100.00;97639.13;4861973;29;20517;-74
2022/04/17 00:47:18;;;;;;;3.60;3.37;;;;;;;-0.16;100.00;97723.09;4863066;29;20472;-74
2022/04/17 00:49:46;;;;;;;3.13;2.80;;;;;;;-0.20;100.00;97724.56;4860339;29;20566;-74
2022/04/17 00:52:14;;;;;;;3.07;2.87;;;;;;;0.15;100.00;97727.22;4859964;29;20533;-74
2022/04/17 00:54:46;;;;;;;5.17;3.80;;;;;;;0.05;100.00;97674.97;4861498;29;20495;-75
2022/04/17 00:57:17;;;;;;;3.50;3.20;;;;;;;0.59;100.00;97729.25;4859808;29;20444;-75
2022/04/17 00:59:45;;;;;;;5.03;4.60;;;;;;;0.51;100.00;97721.78;4860648;29;20554;-75
2022/04/17 01:02:14;;;;;;;3.00;2.80;;;;;;;0.49;100.00;97725.66;4860798;29;20432;-74
2022/04/17 01:04:43;;;;;;;3.57;2.60;;;;;;;-0.32;100.00;97709.72;4860747;29;20527;-75
2022/04/17 01:07:10;;;;;;;4.40;3.33;;;;;;;-0.35;100.00;97673.78;4860297;29;20464;-74
2022/04/17 01:09:38;;;;;;;3.30;3.00;;;;;;;-0.07;100.00;97688.75;4861074;29;20898;-74
2022/04/17 01:12:08;;;;;;;3.53;3.23;;;;;;;0.27;100.00;97721.03;4857744;29;20463;-74
2022/04/17 01:14:40;;;;;;;3.03;2.80;;;;;;;0.36;100.00;97728.47;4842846;29;20429;-75
2022/04/17 01:17:07;;;;;;;3.20;2.90;;;;;;;0.13;100.00;97679.84;4852229;29;20928;-74
2022/04/17 01:19:39;;;;;;;4.80;3.43;;;;;;;0.45;100.00;97712.31;4866421;29;20546;-75
2022/04/17 01:22:09;;;;;;;2.73;2.53;;;;;;;0.57;100.00;97692.28;4860335;29;20440;-75
2022/04/17 01:27:23;;;;;;;3.77;2.90;;;;;;;0.16;100.00;97714.00;4859299;29;20570;-75
2022/04/17 01:29:51;;;;;;;4.60;2.60;;;;;;;-0.33;100.00;97656.16;4859887;29;20474;-75
2022/04/17 01:32:18;;;;;;;2.90;2.70;;;;;;;0.06;100.00;97703.34;4859631;29;20551;-75
2022/04/17 01:34:45;;;;;;;2.80;2.40;;;;;;;0.21;100.00;97692.50;4860058;29;20458;-75
2022/04/17 01:37:14;;;;;;;3.90;3.60;;;;;;;0.12;100.00;97663.44;4860542;29;20531;-74
2022/04/17 01:39:41;;;;;;;3.33;3.13;;;;;;;0.52;100.00;97707.75;4860011;29;20512;-74
2022/04/17 01:42:08;;;;;;;4.07;3.30;;;;;;;0.58;100.00;97693.84;4874496;29;20543;-74
2022/04/17 01:44:35;;;;;;;3.57;3.27;;;;;;;0.34;100.00;97662.88;4859080;29;20451;-75
2022/04/17 01:47:02;;;;;;;4.17;3.77;;;;;;;0.37;100.00;97686.63;4859439;29;20439;-75
2022/04/17 01:49:29;;;;;;;4.33;3.93;;;;;;;0.57;100.00;97702.69;4860139;29;20559;-75
2022/04/17 01:51:57;;;;;;;4.07;3.67;;;;;;;0.18;100.00;97654.75;4855767;29;20520;-75
2022/04/17 01:54:25;;;;;;;4.40;4.00;;;;;;;0.57;100.00;97688.88;4857227;29;20896;-75
2022/04/17 01:56:52;;;;;;;6.50;4.80;;;;;;;0.26;100.00;97635.41;4843159;29;20443;-75
2022/04/17 01:59:21;;;;;;;6.37;4.70;;;;;;;0.34;100.00;97692.28;4859790;29;20451;-75
2022/04/17 02:01:48;;;;;;;6.97;5.67;;;;;;;0.11;100.00;97694.88;4855355;29;20787;-75
2022/04/17 02:04:16;;;;;;;3.37;3.13;;;;;;;-0.65;100.00;97632.28;4871898;29;20935;-75
2022/04/17 02:06:43;;;;;;;4.93;3.33;;;;;;;-0.56;100.00;97645.72;4859663;29;20436;-75
2022/04/17 02:09:12;;;;;;;4.73;4.13;;;;;;;-0.52;100.00;97636.50;4859405;29;20490;-75
2022/04/17 02:11:40;;;;;;;4.27;3.77;;;;;;;-0.30;100.00;97675.72;4858631;29;20876;-75
2022/04/17 02:14:09;;;;;;;7.20;3.23;;;;;;;-0.40;100.00;97691.03;4873464;29;20985;-75
2022/04/17 02:16:36;;;;;;;4.67;4.03;;;;;;;-0.55;100.00;97685.47;4859327;29;20438;-75
2022/04/17 02:19:03;;;;;;;3.30;2.77;;;;;;;-0.62;100.00;97678.56;4859386;29;20538;-75
2022/04/17 02:21:30;;;;;;;3.37;3.07;;;;;;;-0.79;100.00;97627.50;4859410;29;20526;-75
2022/04/17 02:23:59;;;;;;;6.13;3.60;;;;;;;-0.16;100.00;97666.69;4842726;29;20481;-75
2022/04/17 02:26:25;;;;;;;2.43;2.23;;;;;;;-0.36;100.00;97614.25;4859177;29;20438;-75
2022/04/17 02:28:56;;;;;;;2.70;2.50;;;;;;;-0.18;100.00;97655.72;4857949;29;20569;-74
2022/04/17 02:31:23;;;;;;;2.70;2.50;;;;;;;-0.37;100.00;97628.28;4858211;29;20537;-74
2022/04/17 02:33:51;;;;;;;2.63;2.43;;;;;;;-0.10;100.00;97667.63;4857914;29;21179;-75
2022/04/17 02:36:19;;;;;;;4.20;2.80;;;;;;;0.05;100.00;97661.97;4873347;29;20440;-75
2022/04/17 02:38:45;;;;;;;3.83;2.77;;;;;;;0.03;100.00;97654.41;4854753;29;20460;-75
2022/04/17 02:41:12;;;;;;;3.87;3.40;;;;;;;0.06;100.00;97656.56;4853864;29;20555;-75
2022/04/17 02:43:39;;;;;;;4.43;3.17;;;;;;;-0.36;100.00;97620.25;4858780;29;20436;-74
2022/04/17 02:46:06;;;;;;;3.67;3.40;;;;;;;-0.56;100.00;97596.38;4858551;29;20477;-75
2022/04/17 02:48:34;;;;;;;3.20;3.00;;;;;;;-0.29;100.00;97617.53;4859479;29;20557;-75
2022/04/17 02:51:02;;;;;;;4.37;3.80;;;;;;;-0.26;100.00;97609.31;4857969;29;20857;-75
2022/04/17 02:53:33;;;;;;;3.30;3.00;;;;;;;-0.22;100.00;97612.25;4859061;29;20442;-74
2022/04/17 02:56:00;;;;;;;3.60;2.77;;;;;;;-0.21;100.00;97619.03;4857780;29;20482;-74
2022/04/17 02:58:27;;;;;;;3.93;2.60;;;;;;;-0.27;100.00;97646.69;4856830;29;20484;-74
2022/04/17 03:06:24;;;;;;;3.60;3.10;;;;;;;-0.37;100.00;97642.06;4847151;29;20490;-75
2022/04/17 03:08:51;;;;;;;3.00;2.50;;;;;;;-1.16;100.00;97535.97;4857306;29;20877;-74
2022/04/17 03:11:18;;;;;;;3.23;3.00;;;;;;;-0.56;100.00;97606.75;4858896;29;20450;-74
2022/04/17 03:13:44;;;;;;;5.80;3.27;;;;;;;-0.36;100.00;97632.44;4842342;29;20439;-75
2022/04/17 03:16:12;;;;;;;3.60;2.50;;;;;;;-0.30;100.00;97636.72;4854318;29;20482;-75
2022/04/17 03:18:38;;;;;;;3.53;2.30;;;;;;;-0.32;100.00;97642.16;4855665;29;20498;-75
2022/04/17 03:21:05;;;;;;;3.40;3.20;;;;;;;-0.79;100.00;97558.19;4857367;29;20443;-75
2022/04/17 03:23:32;;;;;;;3.00;2.73;;;;;;;-0.55;100.00;97608.34;4857461;29;20444;-75
2022/04/17 03:25:59;;;;;;;3.83;3.03;;;;;;;-0.35;100.00;97624.44;4857377;29;20782;-74
2022/04/17 03:28:25;;;;;;;3.03;2.73;;;;;;;-0.54;100.00;97601.34;4842123;29;20486;-74
2022/04/17 03:30:52;;;;;;;2.70;2.50;;;;;;;-0.40;100.00;97621.72;4857525;29;20432;-75
2022/04/17 03:33:19;;;;;;;2.70;2.50;;;;;;;-0.55;100.00;97625.72;4854152;29;20864;-75
2022/04/17 03:35:45;;;;;;;3.67;2.60;;;;;;;-0.61;100.00;97610.03;4830160;29;20464;-75
2022/04/17 03:38:12;;;;;;;2.80;2.50;;;;;;;-0.56;100.00;97624.94;4857296;29;20503;-75
2022/04/17 03:40:39;;;;;;;2.87;2.67;;;;;;;-1.08;100.00;97546.81;4858549;29;20546;-75
2022/04/17 03:43:06;;;;;;;3.30;3.00;;;;;;;-1.41;100.00;97588.75;4857761;29;20442;-75
2022/04/17 03:45:33;;;;;;;2.87;2.70;;;;;;;-1.30;100.00;97632.13;4857833;29;20435;-74
2022/04/17 03:48:00;;;;;;;3.30;2.87;;;;;;;-1.40;100.00;97628.44;4858824;29;21100;-74
2022/04/17 03:50:27;;;;;;;3.30;2.63;;;;;;;-1.45;100.00;97574.66;4858901;29;20523;-74
2022/04/17 03:52:54;;;;;;;3.47;3.10;;;;;;;-1.25;100.00;97557.03;4858742;29;20434;-75
2022/04/17 03:55:20;;;;;;;4.67;3.00;;;;;;;-1.01;100.00;97596.81;4854144;29;20559;-75
2022/04/17 03:57:47;;;;;;;4.33;3.93;;;;;;;-1.27;100.00;97597.16;4840249;29;20718;-74
2022/04/17 04:00:14;;;;;;;4.63;4.17;;;;;;;-1.26;100.00;97612.50;4853862;29;20971;-74
2022/04/17 04:02:42;;;;;;;6.27;3.50;;;;;;;-1.69;100.00;97567.75;4828371;29;21288;-75
2022/04/17 04:05:10;;;;;;;5.70;4.07;;;;;;;-1.62;100.00;97576.22;4838662;29;20440;-75
2022/04/17 04:07:38;;;;;;;4.17;3.87;;;;;;;-1.16;100.00;97604.22;4856231;29;20538;-75
2022/04/17 04:10:06;;;;;;;4.90;4.00;;;;;;;-1.16;100.00;97613.81;4842564;29;20606;-75
2022/04/17 04:12:34;;;;;;;5.90;4.40;;;;;;;-1.31;100.00;97617.56;4857190;29;20907;-75
2022/04/17 04:15:02;;;;;;;5.03;4.63;;;;;;;-1.34;100.00;97628.34;4857140;29;20447;-75
2022/04/17 04:17:28;;;;;;;3.70;3.40;;;;;;;-1.24;100.00;97607.91;4841945;29;20450;-75
2022/04/17 04:19:55;;;;;;;4.63;4.03;;;;;;;-1.54;100.00;97594.88;4854136;29;20512;-75
2022/04/17 04:22:21;;;;;;;3.97;3.63;;;;;;;-1.31;100.00;97614.19;4847996;29;20454;-75
2022/04/17 04:24:48;;;;;;;4.30;3.60;;;;;;;-1.21;100.00;97611.84;4860406;29;20454;-75
2022/04/17 04:30:01;;;;;;;5.43;4.53;;;;;;;-1.37;100.00;97605.47;4861291;29;20565;-75
2022/04/17 04:32:27;;;;;;;4.13;3.80;;;;;;;-1.53;100.00;97613.84;4861353;29;20439;-75
2022/04/17 04:35:01;;;;;;;4.23;3.67;;;;;;;-1.80;100.00;97611.53;4861165;29;20875;-75
2022/04/17 04:37:28;;;;;;;4.27;3.60;;;;;;;-1.51;100.00;97629.97;4859744;29;20979;-75
2022/04/17 04:39:56;;;;;;;4.53;4.10;;;;;;;-1.49;100.00;97605.41;4859668;29;20463;-75
2022/04/17 04:42:23;;;;;;;3.50;3.20;;;;;;;-1.14;100.00;97619.56;4844645;29;20447;-76
2022/04/17 04:46:06;;;;;;;4.00;3.67;;;;;;;-1.03;100.00;97605.84;4844323;29;21030;-76
2022/04/17 04:47:36;;;;;;;3.87;3.57;;;;;;;-0.80;100.00;97613.72;4875019;29;20452;-75
2022/04/17 04:50:03;;;;;;;6.00;3.93;;;;;;;-0.60;100.00;97629.00;4860390;29;21027;-75
2022/04/17 04:52:35;;;;;;;8.50;7.47;;;;;;;-0.72;100.00;97623.78;4859840;29;20451;-75
2022/04/17 04:55:02;;;;;;;10.00;8.97;;;;;;;-0.92;100.00;97592.13;4860793;29;20834;-75
2022/04/17 04:57:29;;;;;;;11.07;9.67;;;;;;;-0.84;100.00;97591.00;4874853;29;20888;-75
2022/04/17 04:59:56;;;;;;;11.80;9.17;;;;;;;-0.72;100.00;97590.03;4860786;29;20924;-75
2022/04/17 05:02:23;;;;;;;10.00;9.00;;;;;;;-0.36;100.00;97622.84;4860637;29;20802;-76
2022/04/17 05:04:49;;;;;;;6.67;6.00;;;;;;;-0.38;100.00;97630.06;4874714;29;20999;-75
2022/04/17 05:07:16;;;;;;;4.80;4.40;;;;;;;-0.61;100.00;97578.88;4859262;29;20456;-75
2022/04/17 05:09:42;;;;;;;7.10;4.20;;;;;;;-0.63;100.00;97583.50;4874193;29;20488;-75
2022/04/17 05:12:10;;;;;;;3.43;3.23;;;;;;;-0.58;100.00;97582.03;4859074;29;20866;-75
2022/04/17 05:14:41;;;;;;;2.87;2.67;;;;;;;-0.52;100.00;97592.34;4855998;29;20477;-76
2022/04/17 05:17:08;;;;;;;4.53;3.77;;;;;;;-0.65;100.00;97553.59;4838438;29;20478;-75
2022/04/17 05:19:35;;;;;;;3.57;3.27;;;;;;;-0.26;100.00;97608.53;4866006;29;20502;-75
2022/04/17 05:22:02;;;;;;;3.40;3.10;;;;;;;-0.63;100.00;97515.97;4858065;29;20447;-75
2022/04/17 05:24:30;;;;;;;4.30;3.77;;;;;;;-0.23;100.00;97595.06;4856157;29;20509;-76
2022/04/17 05:26:57;;;;;;;6.03;4.40;;;;;;;-0.39;100.00;97571.34;4854229;29;20435;-76
2022/04/17 05:29:23;;;;;;;6.20;4.60;;;;;;;-0.08;100.00;97587.59;4850869;29;20475;-76
2022/04/17 05:31:50;;;;;;;4.57;4.13;;;;;;;-0.21;100.00;97580.81;4858978;29;20795;-75
2022/04/17 05:34:17;;;;;;;6.00;5.40;;;;;;;-0.35;100.00;97571.66;4858897;29;20455;-75
2022/04/17 05:36:43;;;;;;;4.93;4.43;;;;;;;-0.51;100.00;97572.34;4858788;29;20501;-76
2022/04/17 05:39:11;;;;;;;3.30;3.00;;;;;;;-0.11;100.00;97612.25;4843376;29;20453;-75
2022/04/17 05:41:39;;;;;;;3.13;2.93;;;;;;;-0.50;100.00;97568.72;4855478;29;20439;-75
2022/04/17 05:44:07;;;;;;;4.10;3.70;;;;;;;-0.08;100.00;97598.78;4851327;29;20485;-75
2022/04/17 05:46:38;;;;;;;3.90;3.70;;;;;;;0.19;100.00;97604.31;4858537;29;20463;-75
2022/04/17 05:49:06;;;;;;;3.93;3.60;;;;;;;0.34;100.00;97603.84;4859758;29;21016;-75
2022/04/17 05:51:35;;;;;;;3.80;3.50;;;;;;;0.57;100.00;97598.59;4859928;29;20446;-75
2022/04/17 05:54:07;;;;;;;3.80;3.50;;;;;;;0.71;100.00;97583.50;4858852;29;20512;-75
2022/04/17 05:56:37;;;;;;;3.90;3.60;;;;;;;1.22;100.00;97610.47;4860301;29;20443;-75
2022/04/17 05:59:05;;;;;;;3.77;3.47;;;;;;;1.45;100.00;97619.97;4843371;29;20991;-75
2022/04/17 06:01:32;;;;;;;5.70;5.20;;;;;;;1.28;100.00;97603.53;4859872;29;20463;-76
2022/04/17 06:04:01;;;;;;;5.70;5.20;;;;;;;1.32;100.00;97615.84;4858915;29;20447;-76
2022/04/17 06:06:28;;;;;;;6.30;5.70;;;;;;;0.96;100.00;97551.97;4858746;29;20451;-75
2022/04/17 06:08:55;;;;;;;5.10;4.03;;;;;;;1.59;100.00;97610.81;4858619;29;20836;-75
2022/04/17 06:11:21;;;;;;;8.57;6.90;;;;;;;1.30;100.00;97617.09;4858841;29;20445;-75
2022/04/17 06:13:48;;;;;;;9.67;7.27;;;;;;;1.03;100.00;97588.25;4858844;29;20476;-76
2022/04/17 06:16:15;;;;;;;11.13;7.27;;;;;;;1.15;100.00;97575.97;4860032;29;20472;-75
2022/04/17 06:18:42;;;;;;;7.27;6.67;;;;;;;1.46;100.00;97609.31;4858214;29;21041;-75
2022/04/17 06:21:11;;;;;;;6.97;5.90;;;;;;;1.70;100.00;97596.13;4859481;29;20469;-75
2022/04/17 06:23:38;;;;;;;9.40;8.40;;;;;;;1.66;100.00;97568.97;4855154;29;20996;-75
2022/04/17 06:26:06;;;;;;;6.80;6.10;;;;;;;2.08;100.00;97604.00;4851469;29;20531;-75
2022/04/17 06:28:33;;;;;;;7.33;6.43;;;;;;;2.04;100.00;97595.09;4857904;29;20481;-75
2022/04/17 06:30:59;;;;;;;6.07;5.10;;;;;;;2.35;100.00;97598.88;4855099;29;20916;-76
2022/04/17 06:33:26;;;;;;;6.30;5.63;;;;;;;2.70;100.00;97621.25;4841002;29;20447;-76
2022/04/17 06:35:53;;;;;;;7.50;6.70;;;;;;;2.74;100.00;97619.72;4855260;29;20436;-76
2022/04/17 06:38:20;;;;;;;5.90;5.20;;;;;;;2.89;100.00;97624.31;4853530;29;20847;-75
2022/04/17 06:40:47;;;;;;;12.13;7.20;;;;;;;3.06;100.00;97598.91;4840765;29;20948;-75
2022/04/17 06:43:13;;;;;;;7.63;6.97;;;;;;;3.50;100.00;97599.59;4872351;29;20450;-76
2022/04/17 06:45:40;;;;;;;5.83;5.23;;;;;;;3.99;100.00;97628.19;4860151;29;20535;-76
2022/04/17 06:48:15;;;;;;;5.10;4.60;;;;;;;3.71;100.00;97607.59;4858225;29;20537;-76
2022/04/17 06:50:43;;;;;;;4.50;3.83;;;;;;;4.31;100.00;97603.81;4839641;29;20550;-76
2022/04/17 06:53:10;;;;;;;4.40;4.10;;;;;;;4.43;100.00;97599.16;4839416;29;20492;-75
2022/04/17 06:55:38;;;;;;;4.40;4.00;;;;;;;4.62;100.00;97592.44;4851437;29;20451;-75
2022/04/17 06:58:07;;;;;;;4.73;4.30;;;;;;;4.95;100.00;97590.44;4859034;29;20554;-75
2022/04/17 07:00:35;;;;;;;3.53;3.20;;;;;;;5.03;100.00;97618.75;4857954;29;20525;-75
2022/04/17 07:03:02;;;;;;;4.10;3.80;;;;;;;5.19;100.00;97614.34;4855002;29;20464;-75
2022/04/17 07:05:29;;;;;;;4.50;4.10;;;;;;;5.28;100.00;97615.41;4853816;29;20443;-75
2022/04/17 07:08:02;;;;;;;4.80;3.50;;;;;;;5.42;100.00;97607.81;4849520;29;20480;-75
2022/04/17 07:10:30;;;;;;;4.07;3.30;;;;;;;5.63;100.00;97615.47;4854569;29;20586;-75
2022/04/17 07:12:57;;;;;;;4.80;3.53;;;;;;;5.85;100.00;97612.56;4857605;29;20446;-75
2022/04/17 07:15:27;;;;;;;4.43;3.63;;;;;;;5.99;100.00;97604.19;4857507;29;20456;-76
2022/04/17 07:17:55;;;;;;;4.73;4.13;;;;;;;6.19;100.00;97602.31;4854704;29;20536;-76
2022/04/17 07:20:22;;;;;;;3.83;3.50;;;;;;;6.19;100.00;97580.53;4856648;29;20461;-76
2022/04/17 07:22:50;;;;;;;3.50;3.20;;;;;;;6.42;100.00;97593.06;4861357;29;20823;-76
2022/04/17 07:25:19;;;;;;;3.97;3.43;;;;;;;6.48;100.00;97584.09;4864599;29;20479;-75
2022/04/17 07:27:49;;;;;;;3.73;2.97;;;;;;;6.07;100.00;97588.69;4858754;29;20437;-76
2022/04/17 07:30:17;;;;;;;3.57;2.97;;;;;;;6.73;96.83;97588.47;4858317;29;20482;-77
2022/04/17 07:32:51;;;;;;;5.43;3.10;;;;;;;6.70;99.16;97582.97;4859031;29;20440;-76
2022/04/17 07:35:18;;;;;;;5.03;3.57;;;;;;;6.85;96.43;97590.00;4857657;29;20973;-75
2022/04/17 07:37:52;;;;;;;5.93;3.60;;;;;;;6.51;97.17;97562.53;4859138;29;20436;-75
2022/04/17 07:40:24;;;;;;;3.33;2.80;;;;;;;6.80;100.00;97585.53;4857418;29;20428;-76
2022/04/17 07:42:52;;;;;;;5.03;3.43;;;;;;;6.76;97.43;97593.19;4859808;29;20439;-75
2022/04/17 07:45:20;;;;;;;4.13;3.73;;;;;;;7.39;95.88;97585.47;4855212;29;20437;-75
2022/04/17 07:47:48;;;;;;;3.60;3.30;;;;;;;7.68;90.86;97588.16;4860306;29;20521;-76
2022/04/17 07:50:17;;;;;;;4.10;3.67;;;;;;;7.71;88.77;97584.16;4857634;29;20902;-75
2022/04/17 07:52:44;;;;;;;4.30;3.67;;;;;;;8.11;85.01;97590.91;4842486;29;20460;-75
2022/04/17 07:55:13;;;;;;;3.90;3.60;;;;;;;7.92;82.48;97582.16;4876423;29;20440;-75
2022/04/17 08:00:32;;;;;;;4.30;3.60;;;;;;;8.37;82.57;97588.06;4861100;29;20444;-75
2022/04/17 08:03:35;;;;;;;4.37;3.50;;;;;;;7.91;80.86;97588.50;4847318;29;20528;-75
2022/04/17 08:06:05;;;;;;;4.63;4.17;;;;;;;7.78;81.30;97552.28;4860565;29;20440;-74
2022/04/17 08:08:33;;;;;;;4.27;3.87;;;;;;;7.67;82.18;97536.56;4844938;29;21076;-74
2022/04/17 08:11:00;;;;;;;4.00;2.90;;;;;;;7.77;79.68;97540.19;4860523;29;20507;-75
2022/04/17 08:13:26;;;;;;;3.50;3.20;;;;;;;7.83;83.70;97558.25;4860118;29;20535;-75
2022/04/17 08:15:53;;;;;;;4.10;3.70;;;;;;;7.97;78.48;97553.91;4861504;29;21171;-74
2022/04/17 08:18:20;;;;;;;4.00;3.70;;;;;;;7.60;78.47;97543.97;4860001;29;20480;-75
2022/04/17 08:20:47;;;;;;;3.73;3.33;;;;;;;8.09;78.55;97524.56;4866146;29;20460;-74
2022/04/17 08:23:14;;;;;;;4.17;3.63;;;;;;;8.34;75.83;97518.25;4868207;29;20445;-74
2022/04/17 08:25:41;;;;;;;4.40;3.60;;;;;;;8.96;72.07;97540.13;4866814;29;20540;-74
2022/04/17 08:28:08;;;;;;;3.27;2.87;;;;;;;9.14;71.23;97567.59;4866417;29;20497;-74
2022/04/17 08:30:37;;;;;;;5.80;3.83;;;;;;;9.18;70.26;97565.94;4866301;29;20468;-74
2022/04/17 08:33:06;;;;;;;3.60;3.30;;;;;;;8.85;71.18;97543.97;4867072;29;20945;-75
2022/04/17 08:35:34;;;;;;;4.83;4.03;;;;;;;9.62;70.90;97572.69;4861659;29;20536;-75
2022/04/17 08:38:03;;;;;;;6.33;5.33;;;;;;;9.64;69.21;97567.88;4859746;29;20967;-74
2022/04/17 08:40:31;;;;;;;4.70;4.27;;;;;;;8.77;68.88;97553.28;4863777;29;20502;-74
2022/04/17 08:42:58;;;;;;;5.70;5.00;;;;;;;9.00;72.85;97535.06;4865638;29;20434;-74
2022/04/17 08:45:26;;;;;;;4.97;4.53;;;;;;;9.40;66.05;97562.72;4859288;29;20544;-74
2022/04/17 08:47:54;;;;;;;4.53;4.13;;;;;;;9.34;67.39;97561.22;4858368;29;20445;-74
2022/04/17 08:50:22;;;;;;;6.90;5.73;;;;;;;8.73;67.20;97465.28;4862231;29;20494;-74
2022/04/17 08:52:51;;;;;;;6.73;4.50;;;;;;;9.47;65.71;97553.34;4864835;29;20465;-74
2022/04/17 08:55:19;;;;;;;5.63;5.03;;;;;;;10.15;67.99;97559.06;4867397;29;20472;-76
2022/04/17 08:57:45;;;;;;;5.27;4.37;;;;;;;10.29;66.08;97557.28;4845281;29;20474;-76
2022/04/17 09:00:16;;;;;;;4.60;4.20;;;;;;;10.56;64.04;97553.84;4861419;29;20543;-77
2022/04/17 09:02:44;;;;;;;5.43;5.03;;;;;;;9.91;62.79;97504.56;4844736;29;20892;-77
2022/04/17 09:05:14;;;;;;;7.30;3.30;;;;;;;9.33;60.81;97512.91;4856773;29;20477;-77
2022/04/17 09:07:46;;;;;;;6.50;4.47;;;;;;;9.51;61.88;97489.41;4855512;29;20446;-76
2022/04/17 09:10:26;;;;;;;5.20;4.50;;;;;;;9.58;60.40;97546.03;4853699;29;20509;-76
2022/04/17 09:12:57;;;;;;;4.77;3.37;;;;;;;8.81;57.79;97509.50;4841064;29;20477;-77
2022/04/17 09:15:26;;;;;;;3.53;3.13;;;;;;;8.88;57.08;97535.50;4858024;29;20501;-76
2022/04/17 09:17:53;;;;;;;3.40;3.20;;;;;;;9.80;59.51;97508.44;4859197;29;20448;-76
2022/04/17 09:20:22;;;;;;;3.87;3.53;;;;;;;10.16;57.51;97532.38;4840812;29;20509;-73
2022/04/17 09:22:51;;;;;;;3.17;2.87;;;;;;;9.76;54.86;97504.84;4847892;29;20445;-74
2022/04/17 09:25:18;;;;;;;4.53;2.90;;;;;;;9.97;54.18;97529.00;4854872;29;20462;-75
2022/04/17 09:28:07;;;;;;;3.73;3.17;;;;;;;10.23;53.11;97510.84;4851431;29;20441;-75
2022/04/17 09:30:47;;;;;;;4.50;2.63;;;;;;;10.11;49.24;97523.72;4874361;29;20464;-75
2022/04/17 09:33:14;;;;;;;4.23;3.20;;;;;;;9.94;46.81;97498.69;4855814;29;20462;-75
2022/04/17 09:35:53;;;;;;;2.40;2.20;;;;;;;9.72;47.47;97487.97;4840263;29;20453;-75
2022/04/17 09:38:23;;;;;;;2.93;2.73;;;;;;;10.52;46.34;97519.25;4858932;29;20548;-74
2022/04/17 09:40:50;;;;;;;3.00;2.07;;;;;;;9.98;45.25;97520.78;4858836;29;20449;-74
2022/04/17 09:43:18;;;;;;;3.63;2.30;;;;;;;10.05;45.73;97502.69;4855555;29;20453;-74
2022/04/17 09:45:57;;;;;;;3.87;3.17;;;;;;;10.60;47.26;97510.63;4867692;29;20457;-74
2022/04/17 09:48:28;;;;;;;4.07;3.20;;;;;;;11.22;46.29;97505.56;4858717;29;21045;-75
2022/04/17 09:50:54;;;;;;;2.60;2.40;;;;;;;10.79;45.57;97485.88;4859926;29;20525;-75
2022/04/17 09:53:32;;;;;;;3.43;3.13;;;;;;;10.58;43.29;97514.66;4858714;29;20457;-75
2022/04/17 09:56:11;;;;;;;3.63;3.17;;;;;;;10.59;44.11;97516.22;4855519;29;20445;-75
2022/04/17 09:58:45;;;;;;;4.17;2.33;;;;;;;10.70;44.88;97487.69;4848470;29;20854;-75
2022/04/17 10:01:16;;;;;;;3.23;2.50;;;;;;;10.55;45.22;97494.06;4849000;29;20444;-74
2022/04/17 10:03:43;;;;;;;2.40;2.17;;;;;;;10.45;42.57;97499.59;4874201;29;20449;-74
2022/04/17 10:06:11;;;;;;;4.57;2.20;;;;;;;10.71;43.88;97500.63;4855441;29;20438;-74
2022/04/17 10:08:42;;;;;;;2.37;2.17;;;;;;;10.80;44.31;97480.28;4868287;29;20469;-74
2022/04/17 10:11:09;;;;;;;3.40;2.53;;;;;;;10.28;43.89;97473.72;4858590;29;21185;-74
2022/04/17 10:13:36;;;;;;;4.57;2.13;;;;;;;10.38;44.69;97420.66;4859776;29;20443;-74
2022/04/17 10:16:06;;;;;;;3.93;3.03;;;;;;;11.04;44.31;97472.06;4858386;29;20457;-75
2022/04/17 10:18:41;;;;;;;2.50;2.30;;;;;;;11.18;43.73;97478.09;4859998;29;20961;-74
2022/04/17 10:21:11;;;;;;;2.50;2.30;;;;;;;10.74;44.12;97465.63;4855182;29;20959;-74
2022/04/17 10:23:42;;;;;;;7.10;2.27;;;;;;;10.79;45.89;97456.78;4871887;29;20926;-75
2022/04/17 10:26:13;;;;;;;3.27;2.97;;;;;;;10.23;46.55;97442.91;4858765;29;20514;-75
2022/04/17 10:28:44;;;;;;;4.10;2.87;;;;;;;10.81;46.51;97450.09;4858386;29;20489;-75
2022/04/17 10:31:17;;;;;;;2.37;2.17;;;;;;;10.85;45.19;97410.63;4858496;29;20476;-74
2022/04/17 10:34:06;;;;;;;3.30;2.63;;;;;;;10.77;43.73;97432.50;4842953;29;20448;-75
2022/04/17 10:36:56;;;;;;;2.30;2.10;;;;;;;11.12;43.70;97452.84;4858315;29;20804;-75
2022/04/17 10:39:36;;;;;;;3.23;2.20;;;;;;;11.65;43.17;97435.38;4858205;29;20496;-76
2022/04/17 10:42:09;;;;;;;5.27;2.33;;;;;;;11.16;41.11;97394.78;4859396;29;20433;-75
2022/04/17 10:44:41;;;;;;;2.73;2.53;;;;;;;11.88;43.01;97420.97;4858205;29;20534;-75
2022/04/17 10:47:21;;;;;;;4.80;2.57;;;;;;;11.03;43.33;97385.03;4857438;29;20904;-74
2022/04/17 10:49:53;;;;;;;4.40;2.77;;;;;;;11.46;43.75;97417.03;4873869;29;20512;-75
2022/04/17 10:52:29;;;;;;;3.63;2.67;;;;;;;11.36;43.23;97422.63;4860017;29;20520;-75
2022/04/17 10:54:55;;;;;;;3.07;2.23;;;;;;;11.75;42.84;97408.59;4858243;29;20437;-75
2022/04/17 10:57:25;;;;;;;2.50;2.23;;;;;;;11.03;40.91;97408.88;4842752;29;20448;-75
2022/04/17 11:00:28;;;;;;;3.43;2.00;;;;;;;11.20;43.06;97409.75;4858590;29;20489;-75
2022/04/17 11:03:26;;;;;;;2.10;1.90;;;;;;;11.07;43.10;97392.06;4858831;29;20805;-76
2022/04/17 11:06:09;;;;;;;4.60;2.30;;;;;;;10.99;42.87;97395.47;4860968;29;20532;-75
2022/04/17 11:08:51;;;;;;;3.43;2.53;;;;;;;10.44;40.97;97381.69;4859477;29;20802;-74
2022/04/17 11:11:18;;;;;;;2.53;2.33;;;;;;;10.55;41.91;97390.94;4859512;29;20611;-75
2022/04/17 11:14:11;;;;;;;2.10;1.90;;;;;;;11.43;44.28;97397.25;4859180;29;20444;-75
2022/04/17 11:16:58;;;;;;;2.83;2.50;;;;;;;11.28;43.86;97389.72;4868283;29;20454;-75
2022/04/17 11:19:31;;;;;;;2.47;2.27;;;;;;;11.61;46.04;97371.59;4834519;29;20496;-76
2022/04/17 11:22:03;;;;;;;5.30;2.47;;;;;;;11.55;42.78;97394.03;4860723;29;20515;-75
2022/04/17 11:24:55;;;;;;;2.73;2.47;;;;;;;11.89;41.65;97388.13;4860656;29;20972;-75
2022/04/17 11:27:41;;;;;;;5.37;3.17;;;;;;;12.32;41.36;97403.31;4861396;29;20437;-75
2022/04/17 11:30:32;;;;;;;2.87;2.67;;;;;;;12.05;41.03;97399.06;4861804;29;20475;-75
2022/04/17 11:33:00;;;;;;;4.13;2.50;;;;;;;12.32;41.69;97393.50;4858773;29;20477;-75
2022/04/17 11:35:28;;;;;;;2.70;2.47;;;;;;;12.51;40.94;97379.91;4860259;29;20491;-75
2022/04/17 11:38:05;;;;;;;2.60;2.33;;;;;;;12.59;42.54;97384.44;4856949;29;20486;-75
2022/04/17 11:40:35;;;;;;;3.37;2.20;;;;;;;11.77;42.39;97374.63;4834471;29;20525;-75
2022/04/17 11:43:12;;;;;;;4.10;3.70;;;;;;;11.71;43.30;97381.16;4856325;29;20438;-75
2022/04/17 11:45:41;;;;;;;3.20;2.73;;;;;;;11.83;43.63;97376.84;4849317;29;20984;-75
2022/04/17 11:48:10;;;;;;;3.07;2.80;;;;;;;11.43;43.53;97354.88;4860081;29;20439;-75
2022/04/17 11:50:37;;;;;;;4.20;2.97;;;;;;;11.65;42.59;97369.16;4859644;29;20476;-75
2022/04/17 11:53:09;;;;;;;4.70;3.00;;;;;;;11.70;43.65;97367.13;4856744;29;20822;-75
2022/04/17 11:55:38;;;;;;;5.13;3.23;;;;;;;12.28;42.54;97352.75;4853978;29;20448;-75